createdAt,value
2023-05-08T00:00:35.402Z,63395.35
2023-05-08T00:01:38.071Z,63401.12
2023-05-08T00:02:40.940Z,63393.47
2023-05-08T00:03:43.156Z,63383.07
2023-05-08T00:04:45.441Z,63392.91
2023-05-08T00:05:47.457Z,63390.29
2023-05-08T00:06:49.430Z,63383.07
2023-05-08T00:07:51.280Z,63387.43
2023-05-08T00:08:56.768Z,63390.29
2023-05-08T00:09:58.656Z,63397.73
2023-05-08T00:11:00.724Z,63395.78
2023-05-08T00:12:03.032Z,63397.30
2023-05-08T00:13:05.029Z,63395.78
2023-05-08T00:14:06.969Z,63384.71
2023-05-08T00:15:09.678Z,63392.61
2023-05-08T00:16:12.108Z,63377.17
2023-05-08T00:17:14.170Z,63385.79
2023-05-08T00:18:15.997Z,63382.51
2023-05-08T00:19:17.866Z,63389.88
2023-05-08T00:20:19.942Z,63378.92
2023-05-08T00:21:21.782Z,63397.30
2023-05-08T00:22:24.289Z,63383.30
2023-05-08T00:23:26.142Z,63386.89
2023-05-08T00:24:28.035Z,63387.98
2023-05-08T00:25:29.897Z,63377.17
2023-05-08T00:26:32.066Z,63382.75
2023-05-08T00:27:33.931Z,63375.39
2023-05-08T00:28:35.801Z,63372.67
2023-05-08T00:29:38.227Z,63374.96
2023-05-08T00:30:40.255Z,63362.08
2023-05-08T00:31:42.180Z,63374.42
2023-05-08T00:32:44.255Z,63377.34
2023-05-08T00:33:46.327Z,63370.59
2023-05-08T00:34:48.211Z,63383.61
2023-05-08T00:35:50.049Z,63378.81
2023-05-08T00:36:52.293Z,63373.21
2023-05-08T00:37:54.145Z,63367.74
2023-05-08T00:38:56.014Z,63381.43
2023-05-08T00:39:57.883Z,63381.43
2023-05-08T00:41:02.764Z,63381.43
2023-05-08T00:42:04.803Z,63376.50
2023-05-08T00:43:06.656Z,63365.54
2023-05-08T00:44:08.547Z,63366.77
2023-05-08T00:45:12.566Z,63374.96
2023-05-08T00:46:15.228Z,63376.50
2023-05-08T00:47:17.298Z,63373.21
2023-05-08T00:48:21.193Z,63367.31
2023-05-08T00:49:23.881Z,63363.59
2023-05-08T00:50:26.973Z,63364.02
2023-05-08T00:51:29.606Z,63361.95
2023-05-08T00:52:32.517Z,63371.03
2023-05-08T00:53:38.106Z,63361.84
2023-05-08T00:54:40.574Z,63364.02
2023-05-08T00:55:43.147Z,63362.92
2023-05-08T00:56:48.575Z,63372.54
2023-05-08T00:57:51.252Z,63365.54
2023-05-08T00:58:53.488Z,63369.93
2023-05-08T00:59:57.929Z,63368.82
2023-05-08T01:01:00.262Z,63361.28
2023-05-08T01:02:03.910Z,63368.95
2023-05-08T01:03:06.758Z,63362.25
2023-05-08T01:04:09.489Z,63369.79
2023-05-08T01:05:11.370Z,63365.00
2023-05-08T01:06:13.631Z,63372.11
2023-05-08T01:07:17.187Z,63361.71
2023-05-08T01:08:19.148Z,63358.55
2023-05-08T01:09:20.975Z,63372.67
2023-05-08T01:10:23.771Z,63363.89
2023-05-08T01:11:44.771Z,63369.25
2023-05-08T01:12:59.782Z,63371.44
2023-05-08T01:14:27.815Z,63358.12
2023-05-08T01:15:33.667Z,63370.46
2023-05-08T01:16:44.406Z,63366.64
2023-05-08T01:19:37.377Z,63361.17
2023-05-08T01:20:58.176Z,63351.31
2023-05-08T01:22:09.846Z,63351.98
2023-05-08T01:23:39.753Z,63351.98
2023-05-08T01:24:51.748Z,63348.70
2023-05-08T01:26:09.301Z,63339.27
2023-05-08T01:27:36.378Z,63344.31
2023-05-08T01:30:20.996Z,63351.98
2023-05-08T01:31:43.668Z,63349.67
2023-05-08T01:32:52.268Z,63351.31
2023-05-08T01:33:58.056Z,63343.10
2023-05-08T01:35:19.094Z,63339.52
2023-05-08T01:36:31.137Z,63327.91
2023-05-08T01:37:45.853Z,63335.02
2023-05-08T01:38:57.103Z,63335.99
2023-05-08T01:40:00.887Z,63329.66
2023-05-08T01:41:15.397Z,63347.60
2023-05-08T01:42:53.180Z,63338.84
2023-05-08T01:44:01.618Z,63332.27
2023-05-08T01:45:07.572Z,63335.99
2023-05-08T01:46:14.490Z,63336.66
2023-05-08T01:47:20.202Z,63329.98
2023-05-08T01:48:34.813Z,63323.52
2023-05-08T01:49:43.502Z,63325.73
2023-05-08T01:50:48.940Z,63323.76
2023-05-08T01:52:00.801Z,63335.99
2023-05-08T01:53:06.557Z,63338.43
2023-05-08T01:54:12.218Z,63341.59
2023-05-08T01:56:29.501Z,63340.37
2023-05-08T01:57:35.032Z,63341.46
2023-05-08T01:58:37.865Z,63334.35
2023-05-08T01:59:42.136Z,63328.21
2023-05-08T02:00:45.353Z,63322.85
2023-05-08T02:01:50.431Z,63325.59
2023-05-08T02:02:56.094Z,63328.99
2023-05-08T02:04:00.636Z,63339.27
2023-05-08T02:05:06.103Z,63337.20
2023-05-08T02:06:12.345Z,63346.14
2023-05-08T02:07:15.086Z,63332.95
2023-05-08T02:08:18.923Z,63330.52
2023-05-08T02:09:23.665Z,63319.03
2023-05-08T02:10:28.339Z,63328.45
2023-05-08T02:11:32.641Z,63322.85
2023-05-08T02:12:36.782Z,63333.25
2023-05-08T02:13:39.567Z,63324.38
2023-05-08T02:14:43.087Z,63325.29
2023-05-08T02:15:49.069Z,63330.09
2023-05-08T02:16:54.886Z,63320.24
2023-05-08T02:17:58.409Z,63321.21
2023-05-08T02:19:02.276Z,63322.85
2023-05-08T02:20:06.053Z,63325.59
2023-05-08T02:21:08.607Z,63308.87
2023-05-08T02:22:12.493Z,63321.77
2023-05-08T02:23:16.978Z,63320.67
2023-05-08T02:24:20.231Z,63319.57
2023-05-08T02:25:23.331Z,63320.54
2023-05-08T02:26:27.226Z,63321.21
2023-05-08T02:27:30.583Z,63313.26
2023-05-08T02:28:34.075Z,63320.67
2023-05-08T02:29:37.175Z,63313.13
2023-05-08T02:30:41.738Z,63309.43
2023-05-08T02:31:45.630Z,63315.20
2023-05-08T02:32:49.209Z,63313.02
2023-05-08T02:33:53.110Z,63326.57
2023-05-08T02:35:03.206Z,63322.44
2023-05-08T02:36:01.740Z,63316.41
2023-05-08T02:37:05.181Z,63315.44
2023-05-08T02:38:09.797Z,63317.92
2023-05-08T02:39:14.533Z,63313.26
2023-05-08T02:40:19.915Z,63322.98
2023-05-08T02:41:24.197Z,63326.02
2023-05-08T02:42:26.823Z,63330.39
2023-05-08T02:43:29.009Z,63308.33
2023-05-08T02:44:31.854Z,63320.54
2023-05-08T02:45:41.992Z,63323.95
2023-05-08T02:47:04.595Z,63311.08
2023-05-08T02:48:13.607Z,63309.30
2023-05-08T02:49:37.114Z,63316.30
2023-05-08T02:50:45.968Z,63314.66
2023-05-08T02:51:54.440Z,63317.62
2023-05-08T02:53:06.248Z,63309.97
2023-05-08T02:54:11.942Z,63314.10
2023-05-08T02:55:29.730Z,63313.80
2023-05-08T02:56:36.232Z,63318.48
2023-05-08T02:57:44.959Z,63313.43
2023-05-08T02:59:11.289Z,63317.38
2023-05-08T03:00:26.124Z,63320.00
2023-05-08T03:01:31.959Z,63311.92
2023-05-08T03:02:44.140Z,63328.34
2023-05-08T03:03:50.004Z,63306.45
2023-05-08T03:04:58.760Z,63311.08
2023-05-08T03:06:02.788Z,63321.10
2023-05-08T03:07:06.152Z,63308.63
2023-05-08T03:08:11.799Z,63315.87
2023-05-08T03:09:19.876Z,63321.88
2023-05-08T03:10:26.254Z,63320.67
2023-05-08T03:11:31.913Z,63324.62
2023-05-08T03:12:37.864Z,63319.57
2023-05-08T03:13:42.494Z,63317.92
2023-05-08T03:16:07.440Z,63324.86
2023-05-08T03:17:12.258Z,63315.44
2023-05-08T03:18:17.898Z,63313.02
2023-05-08T03:19:32.396Z,63313.43
2023-05-08T03:20:41.037Z,63327.24
2023-05-08T03:21:45.301Z,63323.52
2023-05-08T03:22:48.689Z,63326.81
2023-05-08T03:23:53.386Z,63339.27
2023-05-08T03:24:57.773Z,63328.88
2023-05-08T03:26:02.412Z,63318.48
2023-05-08T03:27:05.132Z,63325.05
2023-05-08T03:28:07.586Z,63322.55
2023-05-08T03:29:11.811Z,63325.73
2023-05-08T03:30:16.189Z,63315.20
2023-05-08T03:31:19.181Z,63323.41
2023-05-08T03:32:23.406Z,63330.22
2023-05-08T03:33:27.019Z,63330.63
2023-05-08T03:34:30.410Z,63330.52
2023-05-08T03:35:36.040Z,63324.49
2023-05-08T03:36:38.841Z,63329.42
2023-05-08T03:37:41.668Z,63330.76
2023-05-08T03:38:43.951Z,63340.48
2023-05-08T03:39:46.560Z,63345.41
2023-05-08T03:40:49.266Z,63347.60
2023-05-08T03:41:51.621Z,63341.46
2023-05-08T03:42:54.376Z,63338.84
2023-05-08T03:43:58.006Z,63349.80
2023-05-08T03:45:02.574Z,63356.24
2023-05-08T03:46:05.176Z,63354.05
2023-05-08T03:47:07.760Z,63351.98
2023-05-08T03:48:10.638Z,63360.74
2023-05-08T03:49:14.240Z,63360.31
2023-05-08T03:50:16.920Z,63338.73
2023-05-08T03:51:19.908Z,63339.52
2023-05-08T03:52:22.661Z,63340.48
2023-05-08T03:53:25.070Z,63348.70
2023-05-08T03:54:26.958Z,63355.94
2023-05-08T03:55:30.296Z,63360.74
2023-05-08T03:56:33.586Z,63348.83
2023-05-08T03:57:42.047Z,63369.25
2023-05-08T03:58:53.794Z,63351.01
2023-05-08T04:00:20.477Z,63345.84
2023-05-08T04:01:38.333Z,63360.61
2023-05-08T04:04:17.732Z,63360.31
2023-05-08T04:05:34.903Z,63362.81
2023-05-08T04:06:49.496Z,63363.89
2023-05-08T04:07:53.708Z,63361.17
2023-05-08T04:09:16.707Z,63361.84
2023-05-08T04:10:40.971Z,63361.28
2023-05-08T04:12:02.336Z,63365.13
2023-05-08T04:13:22.720Z,63365.67
2023-05-08T04:14:28.568Z,63366.21
2023-05-08T04:15:34.524Z,63370.59
2023-05-08T04:16:39.367Z,63366.10
2023-05-08T04:17:44.849Z,63369.93
2023-05-08T04:18:49.947Z,63359.39
2023-05-08T04:19:55.614Z,63373.32
2023-05-08T04:20:59.059Z,63366.21
2023-05-08T04:23:18.239Z,63376.73
2023-05-08T04:24:21.781Z,63383.18
2023-05-08T04:25:25.362Z,63387.43
2023-05-08T04:26:28.638Z,63374.85
2023-05-08T04:27:31.011Z,63372.91
2023-05-08T04:28:34.182Z,63377.17
2023-05-08T04:29:36.741Z,63383.30
2023-05-08T04:30:39.721Z,63371.87
2023-05-08T04:31:42.384Z,63385.79
2023-05-08T04:32:46.501Z,63395.11
2023-05-08T04:33:49.430Z,63387.43
2023-05-08T04:34:51.769Z,63390.96
2023-05-08T04:35:54.271Z,63389.88
2023-05-08T04:36:56.644Z,63376.61
2023-05-08T04:37:58.864Z,63388.54
2023-05-08T04:39:00.781Z,63398.40
2023-05-08T04:40:03.244Z,63398.40
2023-05-08T04:41:05.477Z,63402.36
2023-05-08T04:42:07.512Z,63409.66
2023-05-08T04:43:09.602Z,63416.48
2023-05-08T04:44:11.668Z,63420.30
2023-05-08T04:45:14.328Z,63430.17
2023-05-08T04:46:16.957Z,63430.96
2023-05-08T04:47:19.207Z,63440.57
2023-05-08T04:48:21.178Z,63438.15
2023-05-08T04:49:23.170Z,63433.02
2023-05-08T04:50:25.126Z,63442.88
2023-05-08T04:51:26.994Z,63450.56
2023-05-08T04:52:28.858Z,63438.52
2023-05-08T04:53:31.098Z,63437.11
2023-05-08T04:54:33.758Z,63454.39
2023-05-08T04:55:35.626Z,63454.26
2023-05-08T04:56:37.972Z,63439.49
2023-05-08T04:57:39.846Z,63451.11
2023-05-08T04:58:41.819Z,63462.61
2023-05-08T04:59:43.782Z,63417.82
2023-05-08T05:00:45.876Z,63449.59
2023-05-08T05:01:47.860Z,63469.73
2023-05-08T05:02:49.817Z,63473.02
2023-05-08T05:03:51.770Z,63478.37
2023-05-08T05:04:53.794Z,63467.55
2023-05-08T05:05:59.415Z,63486.59
2023-05-08T05:07:02.612Z,63483.43
2023-05-08T05:08:04.797Z,63482.89
2023-05-08T05:09:06.639Z,63493.71
2023-05-08T05:10:09.871Z,63494.81
2023-05-08T05:11:11.719Z,63481.35
2023-05-08T05:12:13.655Z,63483.43
2023-05-08T05:13:15.663Z,63483.43
2023-05-08T05:14:17.562Z,63493.84
2023-05-08T05:15:19.621Z,63491.21
2023-05-08T05:16:21.629Z,63501.62
2023-05-08T05:17:23.571Z,63495.59
2023-05-08T05:18:25.426Z,63499.85
2023-05-08T05:19:27.296Z,63503.14
2023-05-08T05:20:29.380Z,63512.34
2023-05-08T05:21:31.233Z,63525.61
2023-05-08T05:22:33.096Z,63530.13
2023-05-08T05:23:35.079Z,63546.56
2023-05-08T05:24:37.045Z,63564.97
2023-05-08T05:25:38.903Z,63554.66
2023-05-08T05:26:41.090Z,63505.77
2023-05-08T05:27:42.953Z,63532.32
2023-05-08T05:28:44.838Z,63564.43
2023-05-08T05:29:46.828Z,63577.27
2023-05-08T05:30:49.016Z,63585.50
2023-05-08T05:31:50.919Z,63560.16
2023-05-08T05:32:53.090Z,63592.08
2023-05-08T05:33:55.780Z,63592.08
2023-05-08T05:34:57.770Z,63594.16
2023-05-08T05:35:59.875Z,63605.27
2023-05-08T05:37:01.877Z,63611.73
2023-05-08T05:38:04.092Z,63619.84
2023-05-08T05:39:06.450Z,63623.90
2023-05-08T05:40:10.028Z,63602.52
2023-05-08T05:41:12.062Z,63632.70
2023-05-08T05:42:14.498Z,63642.02
2023-05-08T05:43:16.371Z,63643.12
2023-05-08T05:44:18.322Z,63654.94
2023-05-08T05:45:20.379Z,63649.58
2023-05-08T05:46:22.349Z,63659.34
2023-05-08T05:47:24.317Z,63657.81
2023-05-08T05:48:26.311Z,63655.06
2023-05-08T05:49:28.254Z,63660.67
2023-05-08T05:50:30.331Z,63677.12
2023-05-08T05:51:32.196Z,63674.93
2023-05-08T05:52:34.044Z,63686.90
2023-05-08T05:53:35.934Z,63683.71
2023-05-08T05:54:38.056Z,63690.30
2023-05-08T05:55:39.979Z,63705.67
2023-05-08T05:56:41.948Z,63704.59
2023-05-08T05:57:43.848Z,63694.14
2023-05-08T05:58:45.709Z,63699.96
2023-05-08T05:59:47.968Z,63728.07
2023-05-08T06:00:50.043Z,63732.04
2023-05-08T06:01:53.209Z,63741.90
2023-05-08T06:02:55.486Z,63758.93
2023-05-08T06:03:57.606Z,63732.04
2023-05-08T06:04:59.898Z,63770.91
2023-05-08T06:06:01.863Z,63785.64
2023-05-08T06:07:03.752Z,63797.95
2023-05-08T06:08:07.585Z,63790.69
2023-05-08T06:09:09.820Z,63780.92
2023-05-08T06:10:12.728Z,63813.78
2023-05-08T06:11:14.748Z,63800.14
2023-05-08T06:12:16.613Z,63807.62
2023-05-08T06:13:18.670Z,63814.00
2023-05-08T06:14:20.689Z,63844.55
2023-05-08T06:15:22.865Z,63841.25
2023-05-08T06:16:24.978Z,63758.39
2023-05-08T06:17:27.038Z,63802.90
2023-05-08T06:18:29.529Z,63813.34
2023-05-08T06:19:31.381Z,63828.72
2023-05-08T06:20:33.348Z,63837.51
2023-05-08T06:21:35.233Z,63838.72
2023-05-08T06:22:37.496Z,63833.67
2023-05-08T06:23:39.733Z,63871.47
2023-05-08T06:24:41.657Z,63848.07
2023-05-08T06:25:43.520Z,63868.73
2023-05-08T06:26:45.608Z,63875.98
2023-05-08T06:27:48.463Z,63886.98
2023-05-08T06:28:51.128Z,63904.13
2023-05-08T06:29:53.088Z,63886.00
2023-05-08T06:30:55.269Z,63891.49
2023-05-08T06:31:57.333Z,63874.33
2023-05-08T06:32:59.682Z,63896.22
2023-05-08T06:34:01.640Z,63921.10
2023-05-08T06:35:05.314Z,63913.37
2023-05-08T06:36:08.435Z,63908.98
2023-05-08T06:37:10.702Z,63938.15
2023-05-08T06:38:13.136Z,63926.15
2023-05-08T06:39:14.970Z,63914.36
2023-05-08T06:40:17.512Z,63906.77
2023-05-08T06:41:19.467Z,63892.48
2023-05-08T06:42:21.331Z,63913.37
2023-05-08T06:43:23.288Z,63876.42
2023-05-08T06:44:25.293Z,63892.70
2023-05-08T06:45:27.514Z,63914.58
2023-05-08T06:46:29.528Z,63887.53
2023-05-08T06:47:31.738Z,63932.54
2023-05-08T06:48:33.695Z,63943.75
2023-05-08T06:49:36.373Z,63975.00
2023-05-08T06:50:39.275Z,63988.75
2023-05-08T06:51:41.175Z,63976.20
2023-05-08T06:52:43.026Z,63988.75
2023-05-08T06:53:44.918Z,64008.90
2023-05-08T06:54:46.875Z,64002.06
2023-05-08T06:55:49.927Z,63998.66
2023-05-08T06:56:53.006Z,63995.48
2023-05-08T06:57:55.155Z,63990.62
2023-05-08T06:59:07.923Z,63987.10
2023-05-08T07:00:00.803Z,64003.17
2023-05-08T07:01:02.731Z,63960.80
2023-05-08T07:02:04.735Z,63989.30
2023-05-08T07:03:06.802Z,64008.01
2023-05-08T07:04:08.776Z,63997.13
2023-05-08T07:05:10.966Z,63979.41
2023-05-08T07:06:13.335Z,63988.21
2023-05-08T07:07:15.201Z,63956.73
2023-05-08T07:08:17.256Z,63937.16
2023-05-08T07:09:19.106Z,63941.33
2023-05-08T07:10:22.105Z,63939.14
2023-05-08T07:11:24.188Z,63972.02
2023-05-08T07:12:26.195Z,63960.70
2023-05-08T07:13:28.254Z,63956.41
2023-05-08T07:14:30.373Z,63986.66
2023-05-08T07:15:32.273Z,63961.79
2023-05-08T07:16:34.999Z,63976.65
2023-05-08T07:17:37.158Z,64002.51
2023-05-08T07:18:39.927Z,64038.29
2023-05-08T07:19:41.787Z,64035.53
2023-05-08T07:20:43.935Z,64053.16
2023-05-08T07:21:45.803Z,64025.63
2023-05-08T07:22:47.786Z,64025.07
2023-05-08T07:23:49.649Z,63982.05
2023-05-08T07:24:51.521Z,64003.17
2023-05-08T07:25:53.389Z,64000.31
2023-05-08T07:26:55.676Z,64021.77
2023-05-08T07:27:59.203Z,64019.45
2023-05-08T07:29:01.371Z,64006.36
2023-05-08T07:30:04.869Z,64025.63
2023-05-08T07:31:06.803Z,64039.39
2023-05-08T07:32:08.782Z,64025.63
2023-05-08T07:33:12.218Z,64035.53
2023-05-08T07:34:14.589Z,64059.12
2023-05-08T07:35:16.731Z,64043.34
2023-05-08T07:36:19.372Z,64058.68
2023-05-08T07:37:22.148Z,64058.23
2023-05-08T07:38:24.746Z,64084.01
2023-05-08T07:39:26.586Z,64075.18
2023-05-08T07:40:28.628Z,64063.64
2023-05-08T07:41:30.685Z,64039.39
2023-05-08T07:42:38.914Z,64091.27
2023-05-08T07:43:40.864Z,64069.46
2023-05-08T07:44:53.656Z,64077.40
2023-05-08T07:45:47.349Z,64117.93
2023-05-08T07:46:49.443Z,64116.06
2023-05-08T07:49:03.694Z,64098.32
2023-05-08T07:50:06.776Z,64129.71
2023-05-08T07:51:09.247Z,64104.94
2023-05-08T07:52:11.112Z,64123.76
2023-05-08T07:53:12.992Z,64108.24
2023-05-08T07:54:15.075Z,64126.31
2023-05-08T07:55:19.006Z,64054.25
2023-05-08T07:56:21.680Z,64110.44
2023-05-08T07:57:24.778Z,64073.11
2023-05-08T07:58:26.678Z,64069.90
2023-05-08T07:59:28.781Z,64075.18
2023-05-08T08:00:30.740Z,64061.98
2023-05-08T08:01:32.669Z,64046.64
2023-05-08T08:02:34.585Z,64063.52
2023-05-08T08:03:37.832Z,64070.25
2023-05-08T08:04:39.990Z,64096.67
2023-05-08T08:05:42.072Z,64122.67
2023-05-08T08:06:44.036Z,64125.42
2023-05-08T08:07:46.110Z,64105.04
2023-05-08T08:08:47.958Z,64068.15
2023-05-08T08:09:49.882Z,64046.55
2023-05-08T08:10:52.047Z,64035.77
2023-05-08T08:11:54.000Z,64026.94
2023-05-08T08:12:55.860Z,64010.89
2023-05-08T08:13:57.765Z,63993.26
2023-05-08T08:14:59.613Z,63978.52
2023-05-08T08:16:01.609Z,63975.54
2023-05-08T08:17:03.545Z,63964.43
2023-05-08T08:18:05.726Z,63984.36
2023-05-08T08:19:08.064Z,63974.01
2023-05-08T08:20:11.344Z,63981.60
2023-05-08T08:21:13.615Z,63969.94
2023-05-08T08:22:15.560Z,63932.09
2023-05-08T08:23:17.418Z,63943.10
2023-05-08T08:24:19.280Z,63963.44
2023-05-08T08:25:21.138Z,63964.66
2023-05-08T08:26:23.164Z,63990.40
2023-05-08T08:27:25.082Z,63993.04
2023-05-08T08:28:27.056Z,64014.07
2023-05-08T08:29:29.414Z,64045.44
2023-05-08T08:30:31.449Z,64056.48
2023-05-08T08:31:33.373Z,64064.30
2023-05-08T08:32:35.703Z,64086.75
2023-05-08T08:33:37.667Z,64099.41
2023-05-08T08:34:39.633Z,64093.91
2023-05-08T08:35:41.486Z,64047.31
2023-05-08T08:36:43.851Z,64029.04
2023-05-08T08:37:45.856Z,64000.31
2023-05-08T08:38:47.685Z,63987.10
2023-05-08T08:39:49.556Z,64022.43
2023-05-08T08:40:51.533Z,64002.95
2023-05-08T08:41:53.493Z,63993.71
2023-05-08T08:42:55.355Z,63987.10
2023-05-08T08:43:57.707Z,63971.59
2023-05-08T08:45:00.601Z,63995.80
2023-05-08T08:46:06.463Z,63946.95
2023-05-08T08:47:10.549Z,63928.46
2023-05-08T08:48:13.931Z,63906.22
2023-05-08T08:49:19.519Z,63918.32
2023-05-08T08:50:22.727Z,63965.75
2023-05-08T08:51:34.409Z,64021.22
2023-05-08T08:52:57.749Z,64032.89
2023-05-08T08:54:11.722Z,64036.09
2023-05-08T08:55:16.309Z,64007.14
2023-05-08T08:56:22.135Z,63979.08
2023-05-08T08:57:28.536Z,63991.07
2023-05-08T08:58:39.042Z,63968.39
2023-05-08T08:59:43.378Z,63959.59
2023-05-08T09:00:47.296Z,63966.86
2023-05-08T09:01:52.889Z,63971.69
2023-05-08T09:02:56.215Z,63936.50
2023-05-08T09:03:58.694Z,63967.63
2023-05-08T09:05:03.108Z,63987.22
2023-05-08T09:06:06.558Z,63993.16
2023-05-08T09:07:08.897Z,63993.71
2023-05-08T09:08:11.090Z,63973.79
2023-05-08T09:09:13.100Z,63963.44
2023-05-08T09:10:16.353Z,63965.65
2023-05-08T09:11:18.365Z,63969.50
2023-05-08T09:12:20.469Z,63948.15
2023-05-08T09:13:22.432Z,63964.55
2023-05-08T09:14:25.806Z,63972.80
2023-05-08T09:15:28.153Z,63960.70
2023-05-08T09:16:30.590Z,64020.11
2023-05-08T09:17:33.273Z,64051.06
2023-05-08T09:18:35.818Z,64017.37
2023-05-08T09:19:38.074Z,64034.66
2023-05-08T09:20:40.802Z,64043.79
2023-05-08T09:21:43.268Z,64051.06
2023-05-08T09:22:45.732Z,64079.60
2023-05-08T09:24:00.508Z,64066.59
2023-05-08T09:25:03.030Z,64088.52
2023-05-08T09:26:05.110Z,64075.63
2023-05-08T09:27:11.632Z,64044.33
2023-05-08T09:28:22.038Z,64044.23
2023-05-08T09:29:24.846Z,64048.41
2023-05-08T09:30:26.898Z,64038.83
2023-05-08T09:31:37.309Z,64036.75
2023-05-08T09:32:41.865Z,64030.03
2023-05-08T09:33:44.295Z,64037.18
2023-05-08T09:34:50.153Z,64030.24
2023-05-08T09:35:52.744Z,64039.05
2023-05-08T09:38:06.735Z,64046.97
2023-05-08T09:39:11.701Z,64044.33
2023-05-08T09:40:21.950Z,64034.44
2023-05-08T09:41:24.134Z,64055.23
2023-05-08T09:42:29.876Z,64052.59
2023-05-08T09:43:31.809Z,64069.14
2023-05-08T09:44:50.229Z,64090.60
2023-05-08T09:45:52.266Z,64060.33
2023-05-08T09:47:12.857Z,64046.10
2023-05-08T09:48:14.912Z,64052.17
2023-05-08T09:49:17.784Z,64021.77
2023-05-08T09:50:19.977Z,64038.83
2023-05-08T09:51:23.851Z,64041.59
2023-05-08T09:52:30.092Z,64037.18
2023-05-08T09:53:32.340Z,64048.74
2023-05-08T09:54:34.598Z,64058.68
2023-05-08T09:55:48.488Z,64067.16
2023-05-08T09:56:51.156Z,64067.16
2023-05-08T09:57:59.483Z,64070.79
2023-05-08T09:59:03.109Z,64100.07
2023-05-08T10:00:11.950Z,64108.24
2023-05-08T10:01:35.350Z,64146.79
2023-05-08T10:02:40.286Z,64135.79
2023-05-08T10:03:47.131Z,64123.88
2023-05-08T10:04:49.188Z,64128.06
2023-05-08T10:05:51.222Z,64171.58
2023-05-08T10:06:58.280Z,64140.75
2023-05-08T10:08:23.934Z,64162.77
2023-05-08T10:09:27.351Z,64197.07
2023-05-08T10:10:30.047Z,64126.41
2023-05-08T10:11:32.096Z,64086.42
2023-05-08T10:12:34.068Z,64084.01
2023-05-08T10:13:36.045Z,64079.05
2023-05-08T10:14:37.899Z,64068.03
2023-05-08T10:15:43.766Z,64071.88
2023-05-08T10:16:48.206Z,64031.35
2023-05-08T10:17:56.314Z,64059.22
2023-05-08T10:19:00.936Z,64068.59
2023-05-08T10:20:06.291Z,64061.42
2023-05-08T10:21:08.674Z,64068.03
2023-05-08T10:22:11.851Z,64068.59
2023-05-08T10:23:15.497Z,64070.25
2023-05-08T10:24:19.862Z,64074.19
2023-05-08T10:25:22.955Z,64072.54
2023-05-08T10:26:28.683Z,64072.45
2023-05-08T10:27:40.104Z,64049.85
2023-05-08T10:28:55.365Z,64086.66
2023-05-08T10:30:01.126Z,64081.13
2023-05-08T10:31:03.755Z,64061.98
2023-05-08T10:32:11.588Z,64056.70
2023-05-08T10:33:15.379Z,64077.07
2023-05-08T10:34:21.628Z,64073.20
2023-05-08T10:35:24.827Z,64081.91
2023-05-08T10:36:29.633Z,64059.67
2023-05-08T10:37:34.364Z,64077.29
2023-05-08T10:38:37.310Z,64077.95
2023-05-08T10:39:41.867Z,64085.55
2023-05-08T10:40:47.347Z,64102.72
2023-05-08T10:41:50.966Z,64051.50
2023-05-08T10:42:53.341Z,64059.67
2023-05-08T10:44:00.594Z,64060.33
2023-05-08T10:45:05.493Z,64038.50
2023-05-08T10:46:11.510Z,64035.53
2023-05-08T10:47:17.594Z,64039.94
2023-05-08T10:48:38.298Z,64033.33
2023-05-08T10:49:47.065Z,64010.89
2023-05-08T10:52:33.179Z,64025.73
2023-05-08T10:53:47.642Z,64029.48
2023-05-08T10:55:00.415Z,64003.62
2023-05-08T10:56:02.771Z,63994.37
2023-05-08T10:57:12.047Z,63986.44
2023-05-08T10:58:24.553Z,63984.36
2023-05-08T10:59:28.147Z,63990.85
2023-05-08T11:00:54.010Z,63979.41
2023-05-08T11:01:59.782Z,63993.16
2023-05-08T11:03:10.076Z,64010.89
2023-05-08T11:04:21.683Z,64004.16
2023-05-08T11:05:24.590Z,64007.58
2023-05-08T11:06:47.386Z,64019.12
2023-05-08T11:07:59.412Z,64014.61
2023-05-08T11:09:01.472Z,63980.49
2023-05-08T11:10:09.808Z,63999.20
2023-05-08T11:11:32.149Z,64015.06
2023-05-08T11:12:35.662Z,63997.01
2023-05-08T11:13:44.093Z,64009.66
2023-05-08T11:15:01.688Z,64024.53
2023-05-08T11:16:04.981Z,64031.80
2023-05-08T11:17:08.611Z,64041.47
2023-05-08T11:18:10.789Z,64060.55
2023-05-08T11:19:20.145Z,64060.00
2023-05-08T11:20:23.173Z,64058.89
2023-05-08T11:21:25.151Z,64043.24
2023-05-08T11:22:31.364Z,64044.68
2023-05-08T11:23:35.186Z,64050.94
2023-05-08T11:24:39.818Z,64056.48
2023-05-08T11:25:43.336Z,64054.81
2023-05-08T11:26:50.394Z,64041.05
2023-05-08T11:27:56.154Z,64049.64
2023-05-08T11:28:58.481Z,64036.75
2023-05-08T11:30:24.014Z,64021.22
2023-05-08T11:33:06.019Z,64046.97
2023-05-08T11:34:28.580Z,64050.09
2023-05-08T11:35:48.185Z,64081.13
2023-05-08T11:37:02.725Z,64055.47
2023-05-08T11:38:23.204Z,64021.22
2023-05-08T11:39:25.240Z,64020.11
2023-05-08T11:40:49.649Z,64035.53
2023-05-08T11:41:51.834Z,64036.64
2023-05-08T11:42:55.523Z,64018.13
2023-05-08T11:44:04.044Z,64021.44
2023-05-08T11:45:11.921Z,64036.64
2023-05-08T11:46:19.853Z,64041.80
2023-05-08T11:47:22.862Z,64033.33
2023-05-08T11:48:24.889Z,64049.73
2023-05-08T11:49:29.609Z,64052.29
2023-05-08T11:50:31.997Z,64029.58
2023-05-08T11:51:35.819Z,64039.49
2023-05-08T11:52:39.822Z,64046.55
2023-05-08T11:53:43.612Z,64032.22
2023-05-08T11:54:45.574Z,64025.19
2023-05-08T11:55:48.545Z,64031.68
2023-05-08T11:58:13.759Z,64033.87
2023-05-08T11:59:16.786Z,64028.92
2023-05-08T12:00:21.558Z,64004.82
2023-05-08T12:01:24.923Z,64010.22
2023-05-08T12:02:42.082Z,64024.53
2023-05-08T12:03:46.430Z,64019.69
2023-05-08T12:04:48.727Z,64026.06
2023-05-08T12:05:53.130Z,64015.16
2023-05-08T12:06:58.169Z,64013.53
2023-05-08T12:08:00.114Z,64012.64
2023-05-08T12:09:02.526Z,64039.39
2023-05-08T12:10:05.936Z,64047.64
2023-05-08T12:11:08.422Z,64037.74
2023-05-08T12:12:10.287Z,64026.06
2023-05-08T12:13:29.351Z,64033.99
2023-05-08T12:14:35.256Z,64031.14
2023-05-08T12:15:37.891Z,64020.11
2023-05-08T12:16:40.201Z,64016.81
2023-05-08T12:17:42.633Z,63998.66
2023-05-08T12:18:44.837Z,63969.62
2023-05-08T12:19:46.789Z,63969.62
2023-05-08T12:20:57.027Z,63954.76
2023-05-08T12:21:59.801Z,63961.79
2023-05-08T12:23:02.816Z,63964.00
2023-05-08T12:24:06.751Z,63964.00
2023-05-08T12:25:10.481Z,63979.95
2023-05-08T12:26:13.108Z,63972.14
2023-05-08T12:27:15.182Z,63963.88
2023-05-08T12:28:17.069Z,63983.70
2023-05-08T12:29:19.327Z,64001.07
2023-05-08T12:30:22.029Z,64014.83
2023-05-08T12:31:24.610Z,64021.22
2023-05-08T12:32:28.982Z,64024.53
2023-05-08T12:33:32.362Z,63995.48
2023-05-08T12:34:35.455Z,63985.57
2023-05-08T12:35:39.412Z,63994.37
2023-05-08T12:36:41.442Z,64011.09
2023-05-08T12:37:46.442Z,63996.46
2023-05-08T12:38:50.276Z,64007.34
2023-05-08T12:39:52.987Z,63999.87
2023-05-08T12:40:55.288Z,63999.32
2023-05-08T12:41:58.519Z,64025.63
2023-05-08T12:43:03.193Z,64023.98
2023-05-08T12:44:08.951Z,64020.11
2023-05-08T12:45:24.025Z,64022.21
2023-05-08T12:46:26.116Z,64024.53
2023-05-08T12:47:28.530Z,64015.72
2023-05-08T12:48:31.184Z,63999.32
2023-05-08T12:49:33.141Z,64015.28
2023-05-08T12:50:37.845Z,64021.88
2023-05-08T12:51:43.624Z,64018.70
2023-05-08T12:52:46.746Z,64033.99
2023-05-08T12:53:50.172Z,64024.08
2023-05-08T12:54:52.056Z,64033.00
2023-05-08T12:55:56.821Z,64027.50